sensor_id;sensor_type;location;lat;lon;timestamp;temperature;humidity
7388;DHT22;3735;50.136;11.062;2023-03-20T00:01:54;7.60;99.90
7388;DHT22;3735;50.136;11.062;2023-03-20T00:04:20;7.60;99.90
7388;DHT22;3735;50.136;11.062;2023-03-20T00:06:46;7.50;99.90
7388;DHT22;3735;50.136;11.062;2023-03-20T00:09:11;7.50;99.90
7388;DHT22;3735;50.136;11.062;2023-03-20T00:11:52;7.50;99.90
7388;DHT22;3735;50.136;11.062;2023-03-20T00:14:20;7.50;99.90
7388;DHT22;3735;50.136;11.062;2023-03-20T00:16:49;7.60;99.90
7388;DHT22;3735;50.136;11.062;2023-03-20T00:19:24;7.50;99.90
7388;DHT22;3735;50.136;11.062;2023-03-20T00:21:53;7.50;99.90
7388;DHT22;3735;50.136;11.062;2023-03-20T00:24:20;7.40;99.90
7388;DHT22;3735;50.136;11.062;2023-03-20T00:26:47;7.40;99.90
7388;DHT22;3735;50.136;11.062;2023-03-20T00:29:26;7.30;99.90
7388;DHT22;3735;50.136;11.062;2023-03-20T00:31:55;7.30;99.90
7388;DHT22;3735;50.136;11.062;2023-03-20T00:34:23;7.20;99.90
7388;DHT22;3735;50.136;11.062;2023-03-20T00:36:52;7.20;99.90
7388;DHT22;3735;50.136;11.062;2023-03-20T00:39:18;7.20;99.90
7388;DHT22;3735;50.136;11.062;2023-03-20T00:44:26;7.20;99.90
7388;DHT22;3735;50.136;11.062;2023-03-20T00:46:59;7.20;99.90
7388;DHT22;3735;50.136;11.062;2023-03-20T00:49:30;7.20;99.90
7388;DHT22;3735;50.136;11.062;2023-03-20T00:51:58;7.30;99.90
7388;DHT22;3735;50.136;11.062;2023-03-20T00:54:26;7.30;99.90
7388;DHT22;3735;50.136;11.062;2023-03-20T00:57:02;7.30;99.90
7388;DHT22;3735;50.136;11.062;2023-03-20T00:59:33;7.30;99.90
7388;DHT22;3735;50.136;11.062;2023-03-20T01:02:03;7.30;99.90
7388;DHT22;3735;50.136;11.062;2023-03-20T01:04:37;7.30;99.90
7388;DHT22;3735;50.136;11.062;2023-03-20T01:07:06;7.20;99.90
7388;DHT22;3735;50.136;11.062;2023-03-20T01:09:36;7.10;99.90
7388;DHT22;3735;50.136;11.062;2023-03-20T01:12:02;6.90;99.90
7388;DHT22;3735;50.136;11.062;2023-03-20T01:14:29;6.80;99.90
7388;DHT22;3735;50.136;11.062;2023-03-20T01:16:55;6.70;99.90
7388;DHT22;3735;50.136;11.062;2023-03-20T01:19:21;6.60;99.90
7388;DHT22;3735;50.136;11.062;2023-03-20T01:21:47;6.60;99.90
7388;DHT22;3735;50.136;11.062;2023-03-20T01:24:12;6.50;99.90
7388;DHT22;3735;50.136;11.062;2023-03-20T01:26:40;6.50;99.90
7388;DHT22;3735;50.136;11.062;2023-03-20T01:29:26;6.50;99.90
7388;DHT22;3735;50.136;11.062;2023-03-20T01:31:52;6.60;99.90
7388;DHT22;3735;50.136;11.062;2023-03-20T01:34:18;6.70;99.90
7388;DHT22;3735;50.136;11.062;2023-03-20T01:36:52;6.70;99.90
7388;DHT22;3735;50.136;11.062;2023-03-20T01:39:20;6.70;99.90
7388;DHT22;3735;50.136;11.062;2023-03-20T01:41:50;6.80;99.90
7388;DHT22;3735;50.136;11.062;2023-03-20T01:44:21;6.90;99.90
7388;DHT22;3735;50.136;11.062;2023-03-20T01:46:55;6.90;99.90
7388;DHT22;3735;50.136;11.062;2023-03-20T01:51:48;7.00;99.90
7388;DHT22;3735;50.136;11.062;2023-03-20T01:54:16;7.10;99.90
7388;DHT22;3735;50.136;11.062;2023-03-20T01:57:02;7.10;99.90
7388;DHT22;3735;50.136;11.062;2023-03-20T01:59:35;7.20;99.90
7388;DHT22;3735;50.136;11.062;2023-03-20T02:02:07;7.20;99.90
7388;DHT22;3735;50.136;11.062;2023-03-20T02:04:41;7.20;99.90
7388;DHT22;3735;50.136;11.062;2023-03-20T02:07:12;7.30;99.90
7388;DHT22;3735;50.136;11.062;2023-03-20T02:09:42;7.30;99.90
7388;DHT22;3735;50.136;11.062;2023-03-20T02:12:08;7.40;99.90
7388;DHT22;3735;50.136;11.062;2023-03-20T02:14:35;7.40;99.90
7388;DHT22;3735;50.136;11.062;2023-03-20T02:17:08;7.40;99.90
7388;DHT22;3735;50.136;11.062;2023-03-20T02:19:49;7.40;99.90
7388;DHT22;3735;50.136;11.062;2023-03-20T02:40:29;7.50;99.90
7388;DHT22;3735;50.136;11.062;2023-03-20T02:43:32;7.50;99.90
7388;DHT22;3735;50.136;11.062;2023-03-20T02:52:14;7.70;99.90
7388;DHT22;3735;50.136;11.062;2023-03-20T03:00:33;7.70;99.90
7388;DHT22;3735;50.136;11.062;2023-03-20T03:03:17;7.70;99.90
7388;DHT22;3735;50.136;11.062;2023-03-20T03:06:19;7.70;99.90
7388;DHT22;3735;50.136;11.062;2023-03-20T03:08:54;7.70;99.90
7388;DHT22;3735;50.136;11.062;2023-03-20T03:11:25;7.80;99.90
7388;DHT22;3735;50.136;11.062;2023-03-20T03:13:53;7.70;99.90
7388;DHT22;3735;50.136;11.062;2023-03-20T03:16:31;7.70;99.90
7388;DHT22;3735;50.136;11.062;2023-03-20T03:19:18;7.70;99.90
7388;DHT22;3735;50.136;11.062;2023-03-20T03:21:47;7.70;99.90
7388;DHT22;3735;50.136;11.062;2023-03-20T03:24:35;7.70;99.90
7388;DHT22;3735;50.136;11.062;2023-03-20T03:27:06;7.70;99.90
7388;DHT22;3735;50.136;11.062;2023-03-20T03:29:57;7.60;99.90
7388;DHT22;3735;50.136;11.062;2023-03-20T03:32:48;7.60;99.90
7388;DHT22;3735;50.136;11.062;2023-03-20T03:35:34;7.70;99.90
7388;DHT22;3735;50.136;11.062;2023-03-20T03:44:08;7.70;99.90
7388;DHT22;3735;50.136;11.062;2023-03-20T03:46:44;7.60;99.90
7388;DHT22;3735;50.136;11.062;2023-03-20T03:49:19;7.60;99.90
7388;DHT22;3735;50.136;11.062;2023-03-20T03:51:53;7.60;99.90
7388;DHT22;3735;50.136;11.062;2023-03-20T03:54:26;7.60;99.90
7388;DHT22;3735;50.136;11.062;2023-03-20T03:57:00;7.70;99.90
7388;DHT22;3735;50.136;11.062;2023-03-20T03:59:35;7.70;99.90
7388;DHT22;3735;50.136;11.062;2023-03-20T04:02:06;7.70;99.90
7388;DHT22;3735;50.136;11.062;2023-03-20T04:04:36;7.60;99.90
7388;DHT22;3735;50.136;11.062;2023-03-20T04:07:06;7.60;99.90
7388;DHT22;3735;50.136;11.062;2023-03-20T04:09:32;7.60;99.90
7388;DHT22;3735;50.136;11.062;2023-03-20T04:11:58;7.60;99.90
7388;DHT22;3735;50.136;11.062;2023-03-20T04:14:24;7.60;99.90
7388;DHT22;3735;50.136;11.062;2023-03-20T04:16:50;7.60;99.90
7388;DHT22;3735;50.136;11.062;2023-03-20T04:19:15;7.60;99.90
7388;DHT22;3735;50.136;11.062;2023-03-20T04:21:41;7.60;99.90
7388;DHT22;3735;50.136;11.062;2023-03-20T04:24:07;7.60;99.90
7388;DHT22;3735;50.136;11.062;2023-03-20T04:26:33;7.60;99.90
7388;DHT22;3735;50.136;11.062;2023-03-20T04:28:59;7.60;99.90
7388;DHT22;3735;50.136;11.062;2023-03-20T04:31:25;7.60;99.90
7388;DHT22;3735;50.136;11.062;2023-03-20T04:33:52;7.60;99.90
7388;DHT22;3735;50.136;11.062;2023-03-20T04:36:18;7.60;99.90
7388;DHT22;3735;50.136;11.062;2023-03-20T04:38:44;7.60;99.90
7388;DHT22;3735;50.136;11.062;2023-03-20T04:41:10;7.60;99.90
7388;DHT22;3735;50.136;11.062;2023-03-20T04:43:35;7.60;99.90
7388;DHT22;3735;50.136;11.062;2023-03-20T04:46:01;7.60;99.90
7388;DHT22;3735;50.136;11.062;2023-03-20T04:48:27;7.60;99.90
7388;DHT22;3735;50.136;11.062;2023-03-20T04:50:53;7.60;99.90
7388;DHT22;3735;50.136;11.062;2023-03-20T04:53:18;7.60;99.90
7388;DHT22;3735;50.136;11.062;2023-03-20T04:55:44;7.60;99.90
7388;DHT22;3735;50.136;11.062;2023-03-20T04:58:11;7.60;99.90
7388;DHT22;3735;50.136;11.062;2023-03-20T05:00:37;7.60;99.90
7388;DHT22;3735;50.136;11.062;2023-03-20T05:03:03;7.60;99.90
7388;DHT22;3735;50.136;11.062;2023-03-20T05:05:28;7.60;99.90
7388;DHT22;3735;50.136;11.062;2023-03-20T05:07:55;7.60;99.90
7388;DHT22;3735;50.136;11.062;2023-03-20T05:10:21;7.60;99.90
7388;DHT22;3735;50.136;11.062;2023-03-20T05:12:47;7.60;99.90
7388;DHT22;3735;50.136;11.062;2023-03-20T05:15:13;7.60;99.90
7388;DHT22;3735;50.136;11.062;2023-03-20T05:17:39;7.60;99.90
7388;DHT22;3735;50.136;11.062;2023-03-20T05:20:05;7.60;99.90
7388;DHT22;3735;50.136;11.062;2023-03-20T05:22:32;7.60;99.90
7388;DHT22;3735;50.136;11.062;2023-03-20T05:24:57;7.60;99.90
7388;DHT22;3735;50.136;11.062;2023-03-20T05:27:25;7.70;99.90
7388;DHT22;3735;50.136;11.062;2023-03-20T05:29:51;7.70;99.90
7388;DHT22;3735;50.136;11.062;2023-03-20T05:32:16;7.70;99.90
7388;DHT22;3735;50.136;11.062;2023-03-20T05:34:42;7.70;99.90
7388;DHT22;3735;50.136;11.062;2023-03-20T05:37:08;7.70;99.90
7388;DHT22;3735;50.136;11.062;2023-03-20T05:39:34;7.70;99.90
7388;DHT22;3735;50.136;11.062;2023-03-20T05:41:59;7.80;99.90
7388;DHT22;3735;50.136;11.062;2023-03-20T05:44:25;7.80;99.90
7388;DHT22;3735;50.136;11.062;2023-03-20T05:46:51;7.70;99.90
7388;DHT22;3735;50.136;11.062;2023-03-20T05:49:17;7.70;99.90
7388;DHT22;3735;50.136;11.062;2023-03-20T05:51:42;7.80;99.90
7388;DHT22;3735;50.136;11.062;2023-03-20T05:54:08;7.70;99.90
7388;DHT22;3735;50.136;11.062;2023-03-20T05:56:34;7.70;99.90
7388;DHT22;3735;50.136;11.062;2023-03-20T05:59:00;7.70;99.90
7388;DHT22;3735;50.136;11.062;2023-03-20T06:01:27;7.70;99.90
7388;DHT22;3735;50.136;11.062;2023-03-20T06:03:52;7.70;99.90
7388;DHT22;3735;50.136;11.062;2023-03-20T06:06:18;7.70;99.90
7388;DHT22;3735;50.136;11.062;2023-03-20T06:08:44;7.70;99.90
7388;DHT22;3735;50.136;11.062;2023-03-20T06:11:11;7.70;99.90
7388;DHT22;3735;50.136;11.062;2023-03-20T06:13:36;7.70;99.90
7388;DHT22;3735;50.136;11.062;2023-03-20T06:16:02;7.70;99.90
7388;DHT22;3735;50.136;11.062;2023-03-20T06:18:28;7.80;99.90
7388;DHT22;3735;50.136;11.062;2023-03-20T06:20:55;7.80;99.90
7388;DHT22;3735;50.136;11.062;2023-03-20T06:23:22;7.80;99.90
7388;DHT22;3735;50.136;11.062;2023-03-20T06:25:48;7.90;99.90
7388;DHT22;3735;50.136;11.062;2023-03-20T06:28:15;7.90;99.90
7388;DHT22;3735;50.136;11.062;2023-03-20T06:30:41;8.00;99.90
7388;DHT22;3735;50.136;11.062;2023-03-20T06:33:08;8.00;99.90
7388;DHT22;3735;50.136;11.062;2023-03-20T06:35:34;8.10;99.90
7388;DHT22;3735;50.136;11.062;2023-03-20T06:38:00;8.20;99.90
7388;DHT22;3735;50.136;11.062;2023-03-20T06:40:27;8.20;99.90
7388;DHT22;3735;50.136;11.062;2023-03-20T06:42:53;8.30;99.90
7388;DHT22;3735;50.136;11.062;2023-03-20T06:45:20;8.30;99.90
7388;DHT22;3735;50.136;11.062;2023-03-20T06:47:46;8.30;99.90
7388;DHT22;3735;50.136;11.062;2023-03-20T06:50:13;8.40;99.90
7388;DHT22;3735;50.136;11.062;2023-03-20T06:52:40;8.40;99.90
7388;DHT22;3735;50.136;11.062;2023-03-20T06:55:06;8.50;99.90
7388;DHT22;3735;50.136;11.062;2023-03-20T06:57:32;8.60;99.90
7388;DHT22;3735;50.136;11.062;2023-03-20T06:59:58;8.60;99.90
7388;DHT22;3735;50.136;11.062;2023-03-20T07:02:25;8.60;99.90
7388;DHT22;3735;50.136;11.062;2023-03-20T07:04:50;8.70;99.90
7388;DHT22;3735;50.136;11.062;2023-03-20T07:07:17;8.70;99.90
7388;DHT22;3735;50.136;11.062;2023-03-20T07:09:43;8.70;99.90
7388;DHT22;3735;50.136;11.062;2023-03-20T07:12:13;8.70;99.90
7388;DHT22;3735;50.136;11.062;2023-03-20T07:14:43;8.80;99.90
7388;DHT22;3735;50.136;11.062;2023-03-20T07:17:09;8.80;99.90
7388;DHT22;3735;50.136;11.062;2023-03-20T07:19:35;8.90;99.90
7388;DHT22;3735;50.136;11.062;2023-03-20T07:22:04;9.00;99.90
7388;DHT22;3735;50.136;11.062;2023-03-20T07:24:32;9.00;99.90
7388;DHT22;3735;50.136;11.062;2023-03-20T07:26:59;9.00;99.90
7388;DHT22;3735;50.136;11.062;2023-03-20T07:29:25;9.10;99.90
7388;DHT22;3735;50.136;11.062;2023-03-20T07:31:51;9.10;99.90
7388;DHT22;3735;50.136;11.062;2023-03-20T07:34:17;9.20;99.90
7388;DHT22;3735;50.136;11.062;2023-03-20T07:36:43;9.30;99.90
7388;DHT22;3735;50.136;11.062;2023-03-20T07:39:09;9.40;99.90
7388;DHT22;3735;50.136;11.062;2023-03-20T07:41:36;9.50;99.90
7388;DHT22;3735;50.136;11.062;2023-03-20T07:44:02;9.50;99.90
7388;DHT22;3735;50.136;11.062;2023-03-20T07:46:27;9.60;99.90
7388;DHT22;3735;50.136;11.062;2023-03-20T07:48:53;9.70;99.90
7388;DHT22;3735;50.136;11.062;2023-03-20T07:51:20;9.70;99.90
7388;DHT22;3735;50.136;11.062;2023-03-20T07:53:46;9.80;99.90
7388;DHT22;3735;50.136;11.062;2023-03-20T07:56:12;9.80;99.90
7388;DHT22;3735;50.136;11.062;2023-03-20T07:58:38;9.90;99.90
7388;DHT22;3735;50.136;11.062;2023-03-20T08:01:03;10.10;99.90
7388;DHT22;3735;50.136;11.062;2023-03-20T08:03:29;10.10;99.90
7388;DHT22;3735;50.136;11.062;2023-03-20T08:05:56;10.20;99.90
7388;DHT22;3735;50.136;11.062;2023-03-20T08:08:21;10.30;99.90
7388;DHT22;3735;50.136;11.062;2023-03-20T08:10:47;10.40;99.90
7388;DHT22;3735;50.136;11.062;2023-03-20T08:13:14;10.60;99.90
7388;DHT22;3735;50.136;11.062;2023-03-20T08:15:39;10.80;99.90
7388;DHT22;3735;50.136;11.062;2023-03-20T08:18:05;11.10;99.90
7388;DHT22;3735;50.136;11.062;2023-03-20T08:20:31;11.30;99.90
7388;DHT22;3735;50.136;11.062;2023-03-20T08:22:57;11.60;99.90
7388;DHT22;3735;50.136;11.062;2023-03-20T08:25:22;11.70;99.90
7388;DHT22;3735;50.136;11.062;2023-03-20T08:27:48;11.80;99.90
7388;DHT22;3735;50.136;11.062;2023-03-20T08:30:14;11.80;99.90
7388;DHT22;3735;50.136;11.062;2023-03-20T08:32:40;11.80;99.90
7388;DHT22;3735;50.136;11.062;2023-03-20T08:35:07;11.90;99.90
7388;DHT22;3735;50.136;11.062;2023-03-20T08:37:34;11.90;99.90
7388;DHT22;3735;50.136;11.062;2023-03-20T08:40:00;11.80;99.90
7388;DHT22;3735;50.136;11.062;2023-03-20T08:42:26;12.00;99.90
7388;DHT22;3735;50.136;11.062;2023-03-20T08:44:52;12.10;99.90
7388;DHT22;3735;50.136;11.062;2023-03-20T08:47:17;12.10;99.90
7388;DHT22;3735;50.136;11.062;2023-03-20T08:49:43;11.90;99.90
7388;DHT22;3735;50.136;11.062;2023-03-20T08:52:09;11.80;99.90
7388;DHT22;3735;50.136;11.062;2023-03-20T08:54:35;11.60;99.90
7388;DHT22;3735;50.136;11.062;2023-03-20T08:57:01;11.30;99.90
7388;DHT22;3735;50.136;11.062;2023-03-20T08:59:27;11.20;99.90
7388;DHT22;3735;50.136;11.062;2023-03-20T09:01:53;11.10;99.90
7388;DHT22;3735;50.136;11.062;2023-03-20T09:04:19;11.10;99.90
7388;DHT22;3735;50.136;11.062;2023-03-20T09:06:45;11.00;99.90
7388;DHT22;3735;50.136;11.062;2023-03-20T09:09:11;10.80;99.90
7388;DHT22;3735;50.136;11.062;2023-03-20T09:11:40;10.80;99.90
7388;DHT22;3735;50.136;11.062;2023-03-20T09:14:06;10.70;99.90
7388;DHT22;3735;50.136;11.062;2023-03-20T09:16:31;10.60;99.90
7388;DHT22;3735;50.136;11.062;2023-03-20T09:18:57;10.60;99.90
7388;DHT22;3735;50.136;11.062;2023-03-20T09:21:23;10.50;99.90
7388;DHT22;3735;50.136;11.062;2023-03-20T09:23:49;10.60;99.90
7388;DHT22;3735;50.136;11.062;2023-03-20T09:26:15;10.50;99.90
7388;DHT22;3735;50.136;11.062;2023-03-20T09:28:41;10.60;99.90
7388;DHT22;3735;50.136;11.062;2023-03-20T09:31:07;10.60;99.90
7388;DHT22;3735;50.136;11.062;2023-03-20T09:33:32;10.70;99.90
7388;DHT22;3735;50.136;11.062;2023-03-20T09:35:58;10.70;99.90
7388;DHT22;3735;50.136;11.062;2023-03-20T09:38:24;10.90;99.90
7388;DHT22;3735;50.136;11.062;2023-03-20T09:40:52;11.00;99.90
7388;DHT22;3735;50.136;11.062;2023-03-20T09:46:17;11.00;99.90
7388;DHT22;3735;50.136;11.062;2023-03-20T09:49:14;10.90;99.90
7388;DHT22;3735;50.136;11.062;2023-03-20T09:52:09;10.80;99.90
7388;DHT22;3735;50.136;11.062;2023-03-20T09:54:44;10.80;99.90
7388;DHT22;3735;50.136;11.062;2023-03-20T09:57:26;10.80;99.90
7388;DHT22;3735;50.136;11.062;2023-03-20T10:00:05;10.70;99.90
7388;DHT22;3735;50.136;11.062;2023-03-20T10:03:52;10.60;99.90
7388;DHT22;3735;50.136;11.062;2023-03-20T10:06:11;10.70;99.90
7388;DHT22;3735;50.136;11.062;2023-03-20T10:08:39;10.70;99.90
7388;DHT22;3735;50.136;11.062;2023-03-20T10:16:52;10.80;99.90
7388;DHT22;3735;50.136;11.062;2023-03-20T10:19:30;10.80;99.90
7388;DHT22;3735;50.136;11.062;2023-03-20T10:22:27;10.80;99.90
7388;DHT22;3735;50.136;11.062;2023-03-20T10:25:14;10.80;99.90
7388;DHT22;3735;50.136;11.062;2023-03-20T10:27:51;10.80;99.90
7388;DHT22;3735;50.136;11.062;2023-03-20T10:42:01;11.20;99.90
7388;DHT22;3735;50.136;11.062;2023-03-20T10:44:35;11.20;99.90
7388;DHT22;3735;50.136;11.062;2023-03-20T10:47:07;11.20;99.90
7388;DHT22;3735;50.136;11.062;2023-03-20T10:49:52;11.20;99.90
7388;DHT22;3735;50.136;11.062;2023-03-20T10:52:30;11.20;99.90
7388;DHT22;3735;50.136;11.062;2023-03-20T10:55:03;11.40;99.90
7388;DHT22;3735;50.136;11.062;2023-03-20T10:57:37;11.60;99.90
7388;DHT22;3735;50.136;11.062;2023-03-20T11:00:12;11.60;99.90
7388;DHT22;3735;50.136;11.062;2023-03-20T11:02:44;11.50;99.90
7388;DHT22;3735;50.136;11.062;2023-03-20T11:05:23;11.40;99.90
7388;DHT22;3735;50.136;11.062;2023-03-20T11:08:06;11.30;99.90
7388;DHT22;3735;50.136;11.062;2023-03-20T11:10:34;11.30;99.90
7388;DHT22;3735;50.136;11.062;2023-03-20T11:13:15;11.30;99.90
7388;DHT22;3735;50.136;11.062;2023-03-20T11:15:51;11.30;99.90
7388;DHT22;3735;50.136;11.062;2023-03-20T11:18:18;11.50;99.90
7388;DHT22;3735;50.136;11.062;2023-03-20T11:20:54;11.50;99.90
7388;DHT22;3735;50.136;11.062;2023-03-20T11:23:31;11.60;99.90
7388;DHT22;3735;50.136;11.062;2023-03-20T11:26:13;11.60;99.90
7388;DHT22;3735;50.136;11.062;2023-03-20T11:28:53;11.60;99.90
7388;DHT22;3735;50.136;11.062;2023-03-20T11:36:54;11.60;99.90
7388;DHT22;3735;50.136;11.062;2023-03-20T11:39:27;11.60;99.90
7388;DHT22;3735;50.136;11.062;2023-03-20T11:41:58;11.50;99.90
7388;DHT22;3735;50.136;11.062;2023-03-20T11:44:31;11.50;99.90
7388;DHT22;3735;50.136;11.062;2023-03-20T11:49:57;11.40;99.90
7388;DHT22;3735;50.136;11.062;2023-03-20T11:52:36;11.60;99.90
7388;DHT22;3735;50.136;11.062;2023-03-20T11:55:11;11.70;99.90
7388;DHT22;3735;50.136;11.062;2023-03-20T11:58:02;11.80;99.90
7388;DHT22;3735;50.136;11.062;2023-03-20T12:00:38;11.80;99.90
7388;DHT22;3735;50.136;11.062;2023-03-20T12:05:59;12.10;99.90
7388;DHT22;3735;50.136;11.062;2023-03-20T12:08:26;12.30;99.90
7388;DHT22;3735;50.136;11.062;2023-03-20T12:15:02;12.60;99.90
7388;DHT22;3735;50.136;11.062;2023-03-20T12:17:19;12.60;99.90
7388;DHT22;3735;50.136;11.062;2023-03-20T12:19:59;12.60;99.90
7388;DHT22;3735;50.136;11.062;2023-03-20T12:22:46;12.60;99.90
7388;DHT22;3735;50.136;11.062;2023-03-20T12:25:24;12.60;99.90
7388;DHT22;3735;50.136;11.062;2023-03-20T12:28:05;12.70;99.90
7388;DHT22;3735;50.136;11.062;2023-03-20T12:37:09;12.60;99.90
7388;DHT22;3735;50.136;11.062;2023-03-20T12:45:39;13.00;99.90
7388;DHT22;3735;50.136;11.062;2023-03-20T12:55:24;13.00;99.90
7388;DHT22;3735;50.136;11.062;2023-03-20T13:03:27;12.80;99.90
7388;DHT22;3735;50.136;11.062;2023-03-20T13:08:59;13.10;99.90
7388;DHT22;3735;50.136;11.062;2023-03-20T13:11:34;13.40;99.90
7388;DHT22;3735;50.136;11.062;2023-03-20T13:14:23;13.40;99.90
7388;DHT22;3735;50.136;11.062;2023-03-20T13:26:06;13.10;99.90
7388;DHT22;3735;50.136;11.062;2023-03-20T13:40:46;13.50;99.90
7388;DHT22;3735;50.136;11.062;2023-03-20T13:45:42;13.40;99.90
7388;DHT22;3735;50.136;11.062;2023-03-20T13:48:24;13.40;99.90
7388;DHT22;3735;50.136;11.062;2023-03-20T13:51:13;13.50;99.90
7388;DHT22;3735;50.136;11.062;2023-03-20T13:54:01;13.60;99.90
7388;DHT22;3735;50.136;11.062;2023-03-20T14:02:09;13.50;99.90
7388;DHT22;3735;50.136;11.062;2023-03-20T14:05:04;13.50;99.90
7388;DHT22;3735;50.136;11.062;2023-03-20T14:07:37;13.50;99.90
7388;DHT22;3735;50.136;11.062;2023-03-20T14:13:00;13.70;99.90
7388;DHT22;3735;50.136;11.062;2023-03-20T14:15:35;13.60;99.90
7388;DHT22;3735;50.136;11.062;2023-03-20T14:18:05;13.50;99.90
7388;DHT22;3735;50.136;11.062;2023-03-20T14:20:39;13.30;99.90
7388;DHT22;3735;50.136;11.062;2023-03-20T14:23:17;13.20;99.90
7388;DHT22;3735;50.136;11.062;2023-03-20T14:25:47;13.20;99.90
7388;DHT22;3735;50.136;11.062;2023-03-20T14:30:47;13.20;99.90
7388;DHT22;3735;50.136;11.062;2023-03-20T14:35:48;13.40;99.90
7388;DHT22;3735;50.136;11.062;2023-03-20T14:38:54;13.50;99.90
7388;DHT22;3735;50.136;11.062;2023-03-20T14:53:12;13.30;99.90
7388;DHT22;3735;50.136;11.062;2023-03-20T14:58:47;13.10;99.90
7388;DHT22;3735;50.136;11.062;2023-03-20T15:01:24;13.00;99.90
7388;DHT22;3735;50.136;11.062;2023-03-20T15:04:08;12.90;99.90
7388;DHT22;3735;50.136;11.062;2023-03-20T15:06:50;12.70;99.90
7388;DHT22;3735;50.136;11.062;2023-03-20T15:09:24;12.70;99.90
7388;DHT22;3735;50.136;11.062;2023-03-20T15:11:56;12.80;99.90
7388;DHT22;3735;50.136;11.062;2023-03-20T15:14:41;12.70;99.90
7388;DHT22;3735;50.136;11.062;2023-03-20T15:20:23;12.60;99.90
7388;DHT22;3735;50.136;11.062;2023-03-20T15:22:57;12.60;99.90
7388;DHT22;3735;50.136;11.062;2023-03-20T15:25:31;12.50;99.90
7388;DHT22;3735;50.136;11.062;2023-03-20T15:27:57;12.40;99.90
7388;DHT22;3735;50.136;11.062;2023-03-20T15:30:24;12.30;99.90
7388;DHT22;3735;50.136;11.062;2023-03-20T15:32:54;12.30;99.90
7388;DHT22;3735;50.136;11.062;2023-03-20T15:35:22;12.30;99.90
7388;DHT22;3735;50.136;11.062;2023-03-20T15:37:51;12.30;99.90
7388;DHT22;3735;50.136;11.062;2023-03-20T15:40:27;12.30;99.90
7388;DHT22;3735;50.136;11.062;2023-03-20T15:43:14;12.20;99.90
7388;DHT22;3735;50.136;11.062;2023-03-20T15:45:43;12.20;99.90
7388;DHT22;3735;50.136;11.062;2023-03-20T15:48:18;12.20;99.90
7388;DHT22;3735;50.136;11.062;2023-03-20T15:50:49;12.10;99.90
7388;DHT22;3735;50.136;11.062;2023-03-20T15:53:24;12.10;99.90
7388;DHT22;3735;50.136;11.062;2023-03-20T15:56:15;12.00;99.90
7388;DHT22;3735;50.136;11.062;2023-03-20T15:58:43;12.00;99.90
7388;DHT22;3735;50.136;11.062;2023-03-20T16:01:16;12.00;99.90
7388;DHT22;3735;50.136;11.062;2023-03-20T16:03:44;12.00;99.90
7388;DHT22;3735;50.136;11.062;2023-03-20T16:06:12;11.90;99.90
7388;DHT22;3735;50.136;11.062;2023-03-20T16:08:42;11.80;99.90
7388;DHT22;3735;50.136;11.062;2023-03-20T16:11:14;11.80;99.90
7388;DHT22;3735;50.136;11.062;2023-03-20T16:13:46;11.80;99.90
7388;DHT22;3735;50.136;11.062;2023-03-20T16:16:21;11.80;99.90
7388;DHT22;3735;50.136;11.062;2023-03-20T16:18:49;11.70;99.90
7388;DHT22;3735;50.136;11.062;2023-03-20T16:21:21;11.70;99.90
7388;DHT22;3735;50.136;11.062;2023-03-20T16:23:53;11.70;99.90
7388;DHT22;3735;50.136;11.062;2023-03-20T16:26:23;11.60;99.90
7388;DHT22;3735;50.136;11.062;2023-03-20T16:28:54;11.70;99.90
7388;DHT22;3735;50.136;11.062;2023-03-20T16:31:27;11.60;99.90
7388;DHT22;3735;50.136;11.062;2023-03-20T16:34:01;11.50;99.90
7388;DHT22;3735;50.136;11.062;2023-03-20T16:36:35;11.50;99.90
7388;DHT22;3735;50.136;11.062;2023-03-20T16:39:09;11.40;99.90
7388;DHT22;3735;50.136;11.062;2023-03-20T16:41:46;11.40;99.90
7388;DHT22;3735;50.136;11.062;2023-03-20T16:44:19;11.30;99.90
7388;DHT22;3735;50.136;11.062;2023-03-20T16:52:16;11.10;99.90
7388;DHT22;3735;50.136;11.062;2023-03-20T16:54:48;11.10;99.90
7388;DHT22;3735;50.136;11.062;2023-03-20T16:57:16;11.00;99.90
7388;DHT22;3735;50.136;11.062;2023-03-20T16:59:43;11.00;99.90
7388;DHT22;3735;50.136;11.062;2023-03-20T17:02:20;10.90;99.90
7388;DHT22;3735;50.136;11.062;2023-03-20T17:05:01;10.80;99.90
7388;DHT22;3735;50.136;11.062;2023-03-20T17:07:30;10.70;99.90
7388;DHT22;3735;50.136;11.062;2023-03-20T17:12:38;10.60;99.90
7388;DHT22;3735;50.136;11.062;2023-03-20T17:15:05;10.50;99.90
7388;DHT22;3735;50.136;11.062;2023-03-20T17:17:31;10.50;99.90
7388;DHT22;3735;50.136;11.062;2023-03-20T17:19:58;10.40;99.90
7388;DHT22;3735;50.136;11.062;2023-03-20T17:22:26;10.40;99.90
7388;DHT22;3735;50.136;11.062;2023-03-20T17:24:57;10.40;99.90
7388;DHT22;3735;50.136;11.062;2023-03-20T17:27:24;10.30;99.90
7388;DHT22;3735;50.136;11.062;2023-03-20T17:29:51;10.30;99.90
7388;DHT22;3735;50.136;11.062;2023-03-20T17:32:19;10.20;99.90
7388;DHT22;3735;50.136;11.062;2023-03-20T17:34:48;10.20;99.90
7388;DHT22;3735;50.136;11.062;2023-03-20T17:37:26;10.20;99.90
7388;DHT22;3735;50.136;11.062;2023-03-20T17:39:53;10.20;99.90
7388;DHT22;3735;50.136;11.062;2023-03-20T17:42:21;10.20;99.90
7388;DHT22;3735;50.136;11.062;2023-03-20T17:44:56;10.30;99.90
7388;DHT22;3735;50.136;11.062;2023-03-20T17:47:24;10.20;99.90
7388;DHT22;3735;50.136;11.062;2023-03-20T17:49:51;10.10;99.90
7388;DHT22;3735;50.136;11.062;2023-03-20T17:52:22;10.10;99.90
7388;DHT22;3735;50.136;11.062;2023-03-20T17:54:49;10.10;99.90
7388;DHT22;3735;50.136;11.062;2023-03-20T17:57:30;10.00;99.90
7388;DHT22;3735;50.136;11.062;2023-03-20T17:59:58;10.00;99.90
7388;DHT22;3735;50.136;11.062;2023-03-20T18:02:25;10.00;99.90
7388;DHT22;3735;50.136;11.062;2023-03-20T18:04:51;9.90;99.90
7388;DHT22;3735;50.136;11.062;2023-03-20T18:07:23;9.90;99.90
7388;DHT22;3735;50.136;11.062;2023-03-20T18:09:49;9.80;99.90
7388;DHT22;3735;50.136;11.062;2023-03-20T18:12:16;9.80;99.90
7388;DHT22;3735;50.136;11.062;2023-03-20T18:14:44;9.80;99.90
7388;DHT22;3735;50.136;11.062;2023-03-20T18:17:14;9.80;99.90
7388;DHT22;3735;50.136;11.062;2023-03-20T18:19:41;9.70;99.90
7388;DHT22;3735;50.136;11.062;2023-03-20T18:22:07;9.70;99.90
7388;DHT22;3735;50.136;11.062;2023-03-20T18:24:34;9.70;99.90
7388;DHT22;3735;50.136;11.062;2023-03-20T18:27:00;9.60;99.90
7388;DHT22;3735;50.136;11.062;2023-03-20T18:29:27;9.50;99.90
7388;DHT22;3735;50.136;11.062;2023-03-20T18:31:53;9.50;99.90
7388;DHT22;3735;50.136;11.062;2023-03-20T18:34:19;9.40;99.90
7388;DHT22;3735;50.136;11.062;2023-03-20T18:36:45;9.30;99.90
7388;DHT22;3735;50.136;11.062;2023-03-20T18:39:23;9.30;99.90
7388;DHT22;3735;50.136;11.062;2023-03-20T18:41:49;9.30;99.90
7388;DHT22;3735;50.136;11.062;2023-03-20T18:44:16;9.20;99.90
7388;DHT22;3735;50.136;11.062;2023-03-20T18:46:42;9.20;99.90
7388;DHT22;3735;50.136;11.062;2023-03-20T18:49:17;9.20;99.90
7388;DHT22;3735;50.136;11.062;2023-03-20T18:51:44;9.30;99.90
7388;DHT22;3735;50.136;11.062;2023-03-20T18:54:10;9.40;99.90
7388;DHT22;3735;50.136;11.062;2023-03-20T18:56:36;9.50;99.90
7388;DHT22;3735;50.136;11.062;2023-03-20T18:59:03;9.50;99.90
7388;DHT22;3735;50.136;11.062;2023-03-20T19:01:32;9.60;99.90
7388;DHT22;3735;50.136;11.062;2023-03-20T19:03:59;9.70;99.90
7388;DHT22;3735;50.136;11.062;2023-03-20T19:06:25;9.80;99.90